Time;durP1;ratioP1;P1;durP2;ratioP2;P2;SDS_P1;SDS_P2;PMS_P1;PMS_P2;Temp;Humidity;BMP_temperature;BMP_pressure;BME280_temperature;BME280_humidity;BME280_pressure;Samples;Min_cycle;Max_cycle;Signal;HPM_P1;HPM_P2
2021/08/19 00:00:04;;;;;;;;;;;;;;;21.89;60.21;99216.63;5054400;28;806;-61
2021/08/19 00:02:30;;;;;;;;;;;;;;;21.80;60.36;99220.34;5054380;28;883;-62
2021/08/19 00:04:57;;;;;;;;;;;;;;;21.70;60.67;99218.97;5054193;28;1971;-61
2021/08/19 00:07:23;;;;;;;;;;;;;;;21.59;61.84;99227.25;5054383;28;802;-59
2021/08/19 00:09:50;;;;;;;;;;;;;;;21.45;62.56;99231.69;5054184;28;823;-60
2021/08/19 00:12:16;;;;;;;;;;;;;;;21.35;63.30;99239.44;5054208;28;846;-60
2021/08/19 00:14:43;;;;;;;;;;;;;;;21.23;64.17;99249.00;5054243;28;906;-60
2021/08/19 00:17:10;;;;;;;;;;;;;;;21.16;64.71;99247.34;5053869;28;1326;-60
2021/08/19 00:19:36;;;;;;;;;;;;;;;21.11;64.99;99247.28;5053857;28;970;-60
2021/08/19 00:22:03;;;;;;;;;;;;;;;21.07;65.25;99241.84;5054019;28;925;-60
2021/08/19 00:24:30;;;;;;;;;;;;;;;21.01;65.54;99243.81;5053799;28;1910;-60
2021/08/19 00:26:56;;;;;;;;;;;;;;;20.91;66.33;99287.31;5052709;28;889;-60
2021/08/19 00:29:23;;;;;;;;;;;;;;;20.69;67.88;99262.47;5053803;28;886;-59
2021/08/19 00:31:49;;;;;;;;;;;;;;;20.30;70.15;99254.88;5053781;28;893;-59
2021/08/19 00:34:16;;;;;;;;;;;;;;;19.67;74.67;99291.38;5053732;28;822;-61
2021/08/19 00:36:43;;;;;;;;;;;;;;;18.70;79.48;99268.00;5053878;28;851;-61
2021/08/19 00:39:10;;;;;;;;;;;;;;;18.02;83.79;99284.28;5053610;28;905;-60
2021/08/19 00:41:36;;;;;;;;;;;;;;;17.65;86.19;99296.19;5053695;28;807;-70
2021/08/19 00:44:04;;;;;;;;;;;;;;;17.51;87.82;99317.09;5053431;28;1926;-60
2021/08/19 00:46:31;;;;;;;;;;;;;;;17.45;88.40;99318.94;5053498;28;894;-62
2021/08/19 00:49:09;;;;;;;;;;;;;;;17.35;88.77;99332.13;5053597;28;862;-61
2021/08/19 00:51:58;;;;;;;;;;;;;;;17.33;89.08;99342.97;5053394;28;940;-67
2021/08/19 00:54:28;;;;;;;;;;;;;;;17.33;89.07;99347.78;5032916;28;1164;-70
2021/08/19 00:56:58;;;;;;;;;;;;;;;17.30;89.14;99348.69;5053500;28;811;-68
2021/08/19 00:59:26;;;;;;;;;;;;;;;17.24;89.29;99356.91;5053545;28;822;-74
2021/08/19 01:01:56;;;;;;;;;;;;;;;17.18;88.70;99360.78;5052872;28;1257;-69
2021/08/19 01:04:23;;;;;;;;;;;;;;;17.11;89.12;99367.38;5053157;28;1886;-67
2021/08/19 01:06:50;;;;;;;;;;;;;;;17.06;88.47;99368.00;5053080;28;811;-65
2021/08/19 01:09:18;;;;;;;;;;;;;;;16.97;87.74;99376.31;5053060;28;874;-68
2021/08/19 01:11:45;;;;;;;;;;;;;;;16.86;88.51;99376.72;5053091;28;913;-70
2021/08/19 01:14:14;;;;;;;;;;;;;;;16.82;88.71;99401.19;5052957;28;899;-63
2021/08/19 01:16:42;;;;;;;;;;;;;;;16.70;87.62;99416.72;5052700;28;1538;-67
2021/08/19 01:19:12;;;;;;;;;;;;;;;16.63;87.65;99425.38;5034945;28;1365;-64
2021/08/19 01:21:38;;;;;;;;;;;;;;;16.60;88.44;99429.06;5052760;28;855;-66
2021/08/19 01:24:06;;;;;;;;;;;;;;;16.61;88.56;99411.88;5052668;28;1965;-66
2021/08/19 01:26:33;;;;;;;;;;;;;;;16.59;88.37;99413.56;5053071;28;807;-64
2021/08/19 01:29:04;;;;;;;;;;;;;;;16.58;88.63;99403.63;5052654;28;798;-64
2021/08/19 01:31:32;;;;;;;;;;;;;;;16.56;88.57;99403.28;5052582;28;1048;-63
2021/08/19 01:33:59;;;;;;;;;;;;;;;16.56;88.81;99403.28;5052570;28;870;-63
2021/08/19 01:36:26;;;;;;;;;;;;;;;16.58;88.00;99396.03;5052544;28;853;-63
2021/08/19 01:38:55;;;;;;;;;;;;;;;16.62;88.11;99402.28;5052274;28;811;-63
2021/08/19 01:41:22;;;;;;;;;;;;;;;16.66;87.45;99408.50;5052408;28;858;-61
2021/08/19 01:43:48;;;;;;;;;;;;;;;16.70;87.40;99397.19;5052422;28;1886;-60
2021/08/19 01:46:16;;;;;;;;;;;;;;;16.74;87.13;99400.66;5034497;28;1168;-60
2021/08/19 01:48:44;;;;;;;;;;;;;;;16.77;86.55;99391.38;5052358;28;786;-59
2021/08/19 01:51:13;;;;;;;;;;;;;;;16.79;86.51;99405.66;5052246;28;814;-60
2021/08/19 01:53:44;;;;;;;;;;;;;;;16.80;86.67;99400.84;5052344;28;919;-59
2021/08/19 01:56:13;;;;;;;;;;;;;;;16.80;86.46;99403.63;5034505;28;879;-59
2021/08/19 01:58:40;;;;;;;;;;;;;;;16.80;86.16;99389.69;5052173;28;838;-59
2021/08/19 02:01:07;;;;;;;;;;;;;;;16.83;85.08;99372.03;5051991;28;918;-60
2021/08/19 02:03:35;;;;;;;;;;;;;;;16.88;83.53;99383.41;5051969;28;1906;-60
2021/08/19 02:06:01;;;;;;;;;;;;;;;16.97;82.20;99373.53;5052069;28;893;-60
2021/08/19 02:08:28;;;;;;;;;;;;;;;17.01;82.09;99372.16;5051985;28;862;-60
2021/08/19 02:10:54;;;;;;;;;;;;;;;17.07;80.88;99381.50;5051920;28;854;-61
2021/08/19 02:13:21;;;;;;;;;;;;;;;17.16;80.04;99372.41;5051883;28;865;-60
2021/08/19 02:15:48;;;;;;;;;;;;;;;17.24;79.40;99358.91;5052028;28;1130;-59
2021/08/19 02:18:14;;;;;;;;;;;;;;;17.32;79.76;99340.63;5051869;28;838;-60
2021/08/19 02:20:40;;;;;;;;;;;;;;;17.31;79.11;99353.06;5051767;28;843;-61
2021/08/19 02:23:07;;;;;;;;;;;;;;;17.27;80.09;99342.03;5051753;28;889;-60
2021/08/19 02:25:34;;;;;;;;;;;;;;;17.24;80.41;99336.56;5051571;28;1918;-61
2021/08/19 02:28:01;;;;;;;;;;;;;;;17.23;80.02;99344.19;5051880;28;974;-60
2021/08/19 02:30:27;;;;;;;;;;;;;;;17.27;80.33;99350.41;5051671;28;885;-61
2021/08/19 02:32:57;;;;;;;;;;;;;;;17.28;80.08;99349.19;5051625;28;933;-60
2021/08/19 02:35:26;;;;;;;;;;;;;;;17.30;79.25;99357.88;5051629;28;823;-61
2021/08/19 02:37:54;;;;;;;;;;;;;;;17.34;79.75;99357.72;5051646;28;857;-61
2021/08/19 02:40:22;;;;;;;;;;;;;;;17.30;80.63;99359.88;5051528;28;892;-61
2021/08/19 02:42:49;;;;;;;;;;;;;;;17.29;81.00;99380.69;5051544;28;815;-61
2021/08/19 02:45:16;;;;;;;;;;;;;;;17.32;80.59;99366.53;5051419;28;1914;-61
2021/08/19 02:47:43;;;;;;;;;;;;;;;17.29;80.97;99356.31;5051482;28;834;-61
2021/08/19 02:50:10;;;;;;;;;;;;;;;17.27;80.61;99342.03;5050775;28;803;-62
2021/08/19 02:52:37;;;;;;;;;;;;;;;17.26;80.24;99340.47;5051528;28;814;-62
2021/08/19 02:55:04;;;;;;;;;;;;;;;17.31;80.35;99330.72;5051435;28;1031;-62
2021/08/19 02:57:30;;;;;;;;;;;;;;;17.32;81.03;99323.88;5051262;28;791;-61
2021/08/19 02:59:57;;;;;;;;;;;;;;;17.33;81.36;99323.44;5051347;28;878;-62
2021/08/19 03:02:23;;;;;;;;;;;;;;;17.36;81.77;99335.69;5051294;28;882;-61
2021/08/19 03:04:50;;;;;;;;;;;;;;;17.38;81.74;99340.81;5051170;28;1890;-61
2021/08/19 03:07:17;;;;;;;;;;;;;;;17.42;81.38;99333.09;5051325;28;818;-61
2021/08/19 03:09:43;;;;;;;;;;;;;;;17.45;81.29;99330.13;5051094;28;906;-61
2021/08/19 03:12:11;;;;;;;;;;;;;;;17.43;81.75;99341.00;5051227;28;991;-61
2021/08/19 03:14:37;;;;;;;;;;;;;;;17.41;81.79;99339.88;5051283;28;960;-60
2021/08/19 03:17:04;;;;;;;;;;;;;;;17.39;81.71;99345.97;5051284;28;1434;-60
2021/08/19 03:19:31;;;;;;;;;;;;;;;17.45;82.00;99354.50;5033306;28;1321;-60
2021/08/19 03:21:57;;;;;;;;;;;;;;;17.47;81.41;99347.19;5051107;28;897;-60
2021/08/19 03:24:24;;;;;;;;;;;;;;;17.49;81.69;99355.13;5050957;28;1922;-60
2021/08/19 03:26:50;;;;;;;;;;;;;;;17.48;81.80;99348.78;5051092;28;803;-59
2021/08/19 03:29:18;;;;;;;;;;;;;;;17.49;81.78;99358.69;5050989;28;955;-59
2021/08/19 03:31:44;;;;;;;;;;;;;;;17.51;81.18;99358.25;5051042;28;826;-59
2021/08/19 03:34:11;;;;;;;;;;;;;;;17.50;81.35;99379.06;5051123;28;823;-59
2021/08/19 03:36:38;;;;;;;;;;;;;;;17.51;81.09;99375.00;5051000;28;823;-59
2021/08/19 03:39:05;;;;;;;;;;;;;;;17.49;81.35;99372.66;5050943;28;854;-58
2021/08/19 03:41:31;;;;;;;;;;;;;;;17.46;81.20;99379.19;5050804;28;922;-58
2021/08/19 03:43:58;;;;;;;;;;;;;;;17.41;81.25;99374.22;5050879;28;1975;-58
2021/08/19 03:46:25;;;;;;;;;;;;;;;17.35;81.56;99390.78;5051072;28;830;-58
2021/08/19 03:48:52;;;;;;;;;;;;;;;17.33;81.71;99382.09;5050983;28;799;-59
2021/08/19 03:51:17;;;;;;;;;;;;;;;17.35;81.50;99395.59;5050826;28;905;-59
2021/08/19 03:53:44;;;;;;;;;;;;;;;17.39;81.49;99395.44;5050852;28;838;-59
2021/08/19 03:56:11;;;;;;;;;;;;;;;17.39;81.73;99406.63;5050861;28;891;-58
2021/08/19 03:58:38;;;;;;;;;;;;;;;17.35;82.03;99413.13;5051012;28;850;-58
2021/08/19 04:01:06;;;;;;;;;;;;;;;17.33;82.48;99423.97;5052894;28;962;-58
2021/08/19 04:03:32;;;;;;;;;;;;;;;17.34;82.13;99425.53;5054200;28;1961;-58
2021/08/19 04:05:59;;;;;;;;;;;;;;;17.40;81.90;99441.72;5054439;28;873;-58
2021/08/19 04:08:25;;;;;;;;;;;;;;;17.46;81.67;99446.22;5054496;28;897;-58
2021/08/19 04:10:51;;;;;;;;;;;;;;;17.49;81.71;99445.31;5054400;28;835;-58
2021/08/19 04:13:18;;;;;;;;;;;;;;;17.49;82.38;99442.50;5054432;28;780;-58
2021/08/19 04:15:44;;;;;;;;;;;;;;;17.51;82.49;99444.84;5054311;28;1217;-58
2021/08/19 04:18:13;;;;;;;;;;;;;;;17.61;82.17;99438.06;5053974;28;929;-58
2021/08/19 04:20:40;;;;;;;;;;;;;;;17.71;81.23;99445.25;5054180;28;867;-58
2021/08/19 04:23:07;;;;;;;;;;;;;;;17.81;81.13;99448.06;5054105;28;936;-58
2021/08/19 04:25:34;;;;;;;;;;;;;;;17.89;81.21;99449.38;5054358;28;1902;-58
2021/08/19 04:28:00;;;;;;;;;;;;;;;17.95;80.68;99444.75;5054058;28;855;-59
2021/08/19 04:30:26;;;;;;;;;;;;;;;18.03;80.08;99454.41;5054224;28;815;-58
2021/08/19 04:32:53;;;;;;;;;;;;;;;18.11;80.26;99454.88;5053773;28;806;-58
2021/08/19 04:35:20;;;;;;;;;;;;;;;18.20;79.53;99449.31;5053765;28;882;-58
2021/08/19 04:37:47;;;;;;;;;;;;;;;18.32;79.51;99456.00;5053981;28;1421;-58
2021/08/19 04:40:13;;;;;;;;;;;;;;;18.44;79.37;99452.28;5053586;28;886;-58
2021/08/19 04:42:40;;;;;;;;;;;;;;;18.57;79.20;99464.09;5053899;28;835;-58
2021/08/19 04:45:08;;;;;;;;;;;;;;;18.72;78.34;99460.69;5035609;28;1882;-58
2021/08/19 04:47:35;;;;;;;;;;;;;;;18.86;78.05;99462.09;5053450;28;938;-58
2021/08/19 04:50:02;;;;;;;;;;;;;;;18.97;78.17;99465.22;5053438;28;937;-58
2021/08/19 04:52:28;;;;;;;;;;;;;;;19.07;77.81;99471.56;5053251;28;828;-58
2021/08/19 04:54:55;;;;;;;;;;;;;;;19.17;77.45;99473.13;5053351;28;909;-59
2021/08/19 04:57:22;;;;;;;;;;;;;;;19.30;77.20;99479.31;5053390;28;811;-59
2021/08/19 04:59:49;;;;;;;;;;;;;;;19.46;76.67;99485.81;5035316;28;1487;-60
2021/08/19 05:02:16;;;;;;;;;;;;;;;19.71;75.64;99491.03;5053224;28;917;-59
2021/08/19 05:04:46;;;;;;;;;;;;;;;19.90;74.82;99490.97;5053132;28;1976;-59
2021/08/19 05:07:13;;;;;;;;;;;;;;;20.02;74.46;99492.78;5053515;28;1237;-60
2021/08/19 05:15:04;;;;;;;;;;;;;;;20.41;71.88;99501.28;6002252;22;1508;-60
2021/08/19 05:17:30;;;;;;;;;;;;;;;20.27;72.74;99499.19;5033636;28;786;-60
2021/08/19 05:19:56;;;;;;;;;;;;;;;20.12;72.93;99499.13;5033142;28;893;-60
2021/08/19 05:22:22;;;;;;;;;;;;;;;20.08;73.04;99510.53;5032995;28;869;-60
2021/08/19 05:24:49;;;;;;;;;;;;;;;20.08;73.69;99509.72;5032772;28;1983;-61
2021/08/19 05:27:15;;;;;;;;;;;;;;;20.08;73.86;99518.16;5032904;28;822;-61
2021/08/19 05:29:44;;;;;;;;;;;;;;;20.26;73.75;99506.06;5032695;28;1140;-61
2021/08/19 05:32:11;;;;;;;;;;;;;;;20.40;71.75;99516.59;5033063;28;839;-62
2021/08/19 05:34:37;;;;;;;;;;;;;;;20.66;73.88;99528.13;5032753;28;802;-62
2021/08/19 05:37:03;;;;;;;;;;;;;;;21.05;71.59;99527.38;5032661;28;882;-63
2021/08/19 05:39:30;;;;;;;;;;;;;;;21.30;72.79;99521.19;5032653;28;893;-62
2021/08/19 05:41:57;;;;;;;;;;;;;;;21.55;70.28;99527.53;5032536;28;893;-62
2021/08/19 05:44:24;;;;;;;;;;;;;;;21.35;68.63;99525.38;5032733;28;1910;-63
2021/08/19 05:46:51;;;;;;;;;;;;;;;21.15;70.40;99535.25;5032417;28;866;-63
2021/08/19 05:49:17;;;;;;;;;;;;;;;21.12;71.06;99527.78;5032423;28;921;-62
2021/08/19 05:51:44;;;;;;;;;;;;;;;21.22;67.79;99531.28;5032426;28;921;-64
2021/08/19 05:54:10;;;;;;;;;;;;;;;21.15;71.29;99526.81;5032478;28;846;-61
2021/08/19 05:56:36;;;;;;;;;;;;;;;21.24;73.38;99533.59;5032364;28;932;-62
2021/08/19 05:59:03;;;;;;;;;;;;;;;21.27;74.26;99536.22;5032290;28;830;-62
2021/08/19 06:01:28;;;;;;;;;;;;;;;21.15;72.58;99540.09;5032233;28;885;-63
2021/08/19 06:03:55;;;;;;;;;;;;;;;20.76;70.79;99537.25;5032236;28;1878;-62
2021/08/19 06:06:22;;;;;;;;;;;;;;;20.63;71.79;99548.75;5032208;28;885;-62
2021/08/19 06:08:48;;;;;;;;;;;;;;;20.74;73.55;99543.38;5014382;28;1196;-62
2021/08/19 06:11:15;;;;;;;;;;;;;;;20.98;73.38;99540.53;5032176;28;807;-62
2021/08/19 06:13:41;;;;;;;;;;;;;;;21.06;71.12;99548.56;5031930;28;862;-63
2021/08/19 06:16:08;;;;;;;;;;;;;;;21.11;72.01;99545.88;5040812;28;1212;-62
2021/08/19 06:18:35;;;;;;;;;;;;;;;21.00;70.19;99549.25;5052025;28;798;-62
2021/08/19 06:21:02;;;;;;;;;;;;;;;21.09;73.62;99551.22;5051840;28;818;-62
2021/08/19 06:23:28;;;;;;;;;;;;;;;21.32;73.77;99546.03;5051336;28;1945;-63
2021/08/19 06:25:55;;;;;;;;;;;;;;;21.38;70.04;99552.53;5051572;28;909;-62
2021/08/19 06:28:24;;;;;;;;;;;;;;;21.40;68.20;99550.78;5051739;28;862;-63
2021/08/19 06:30:51;;;;;;;;;;;;;;;21.52;71.86;99545.38;5051822;28;826;-63
2021/08/19 06:33:17;;;;;;;;;;;;;;;21.76;72.49;99551.69;5051646;28;787;-63
2021/08/19 06:35:44;;;;;;;;;;;;;;;21.86;67.99;99545.94;5051688;28;901;-64
2021/08/19 06:38:10;;;;;;;;;;;;;;;21.86;68.25;99548.75;5051581;28;830;-62
2021/08/19 06:40:37;;;;;;;;;;;;;;;21.87;64.79;99547.47;5051571;28;810;-63
2021/08/19 06:43:04;;;;;;;;;;;;;;;22.01;64.24;99552.31;5051526;28;856;-63
2021/08/19 06:45:30;;;;;;;;;;;;;;;21.95;64.30;99552.22;5051312;28;1949;-63
2021/08/19 06:47:57;;;;;;;;;;;;;;;21.95;65.46;99549.41;5051511;28;814;-62
2021/08/19 06:50:24;;;;;;;;;;;;;;;22.13;64.05;99556.09;5051528;28;886;-63
2021/08/19 06:52:50;;;;;;;;;;;;;;;22.14;65.53;99558.41;5051358;28;795;-62
2021/08/19 06:55:17;;;;;;;;;;;;;;;22.06;65.23;99559.28;5051402;28;869;-62
2021/08/19 06:57:44;;;;;;;;;;;;;;;21.91;67.71;99571.38;5051420;28;873;-62
2021/08/19 07:00:11;;;;;;;;;;;;;;;22.07;67.72;99570.06;5051298;28;882;-63
2021/08/19 07:02:38;;;;;;;;;;;;;;;21.98;67.50;99564.56;5051412;28;886;-62
2021/08/19 07:05:07;;;;;;;;;;;;;;;21.63;66.37;99573.69;5051234;28;1949;-62
2021/08/19 07:07:34;;;;;;;;;;;;;;;21.52;67.21;99571.44;5051420;28;794;-63
2021/08/19 07:10:01;;;;;;;;;;;;;;;21.63;68.58;99570.88;5051439;28;825;-62
2021/08/19 07:12:28;;;;;;;;;;;;;;;21.75;68.96;99575.44;5051286;28;826;-62
2021/08/19 07:14:53;;;;;;;;;;;;;;;21.75;69.16;99580.28;5051310;28;958;-62
2021/08/19 07:17:20;;;;;;;;;;;;;;;21.66;70.27;99574.75;5051080;28;1343;-62
2021/08/19 07:19:47;;;;;;;;;;;;;;;21.61;67.15;99579.03;5051204;28;850;-64
2021/08/19 07:22:13;;;;;;;;;;;;;;;21.53;66.58;99575.03;5051249;28;845;-63
2021/08/19 07:24:40;;;;;;;;;;;;;;;21.53;68.29;99580.66;5051027;28;1914;-63
2021/08/19 07:27:07;;;;;;;;;;;;;;;21.66;68.70;99583.97;5051109;28;839;-62
2021/08/19 07:29:34;;;;;;;;;;;;;;;21.59;67.58;99585.16;5033284;28;1589;-62
2021/08/19 07:32:01;;;;;;;;;;;;;;;21.33;66.60;99590.50;5051088;28;779;-64
2021/08/19 07:34:28;;;;;;;;;;;;;;;21.04;67.12;99590.44;5051132;28;842;-62
2021/08/19 07:36:55;;;;;;;;;;;;;;;20.88;68.43;99592.41;5054535;28;807;-63
2021/08/19 07:39:22;;;;;;;;;;;;;;;20.82;70.30;99588.72;5055024;28;795;-63
2021/08/19 07:41:48;;;;;;;;;;;;;;;20.73;71.06;99592.34;5054787;28;900;-63
2021/08/19 07:44:15;;;;;;;;;;;;;;;20.60;70.65;99603.81;5054645;28;1898;-63
2021/08/19 07:46:41;;;;;;;;;;;;;;;20.54;70.46;99618.97;5054812;28;864;-63
2021/08/19 07:49:08;;;;;;;;;;;;;;;20.52;71.90;99622.22;5054680;28;871;-63
2021/08/19 07:51:35;;;;;;;;;;;;;;;20.54;71.04;99630.19;5054595;28;834;-63
2021/08/19 07:54:02;;;;;;;;;;;;;;;20.40;71.06;99624.03;5036662;28;1305;-63
2021/08/19 07:56:28;;;;;;;;;;;;;;;20.44;70.80;99623.06;5054487;28;858;-62
2021/08/19 07:58:55;;;;;;;;;;;;;;;20.51;68.21;99634.72;5054538;28;791;-64
2021/08/19 08:01:22;;;;;;;;;;;;;;;20.59;70.53;99635.97;5054441;28;857;-62
2021/08/19 08:03:48;;;;;;;;;;;;;;;20.93;70.19;99627.50;5054322;28;1894;-63
2021/08/19 08:06:15;;;;;;;;;;;;;;;21.26;66.88;99633.03;5054357;28;803;-63
2021/08/19 08:08:42;;;;;;;;;;;;;;;21.62;69.36;99639.63;5054400;28;866;-64
2021/08/19 08:11:11;;;;;;;;;;;;;;;21.81;66.04;99637.44;5054295;28;864;-63
2021/08/19 08:13:37;;;;;;;;;;;;;;;21.83;63.24;99629.28;5054085;28;799;-64
2021/08/19 08:16:04;;;;;;;;;;;;;;;22.19;63.27;99621.69;5053870;28;1349;-63
2021/08/19 08:18:31;;;;;;;;;;;;;;;23.00;62.29;99628.75;5036125;28;1507;-63
2021/08/19 08:21:00;;;;;;;;;;;;;;;23.80;59.22;99632.03;5054093;28;858;-63
2021/08/19 08:23:31;;;;;;;;;;;;;;;23.40;58.58;99630.81;5053974;28;1985;-65
2021/08/19 08:25:58;;;;;;;;;;;;;;;22.96;61.32;99633.84;5053958;28;889;-64
2021/08/19 08:28:30;;;;;;;;;;;;;;;22.52;60.78;99637.59;5053981;28;897;-64
2021/08/19 08:30:58;;;;;;;;;;;;;;;22.03;63.99;99649.06;5053832;28;972;-63
2021/08/19 08:33:26;;;;;;;;;;;;;;;22.06;65.91;99633.22;5053821;28;815;-63
2021/08/19 08:35:52;;;;;;;;;;;;;;;22.22;63.13;99631.97;5053742;28;869;-63
2021/08/19 08:38:19;;;;;;;;;;;;;;;22.41;63.21;99624.88;5053697;28;897;-64
2021/08/19 08:40:47;;;;;;;;;;;;;;;22.34;62.88;99635.75;5035755;28;1453;-64
2021/08/19 08:43:16;;;;;;;;;;;;;;;22.58;61.81;99627.19;5053615;28;870;-65
2021/08/19 08:45:45;;;;;;;;;;;;;;;23.15;61.50;99623.88;5053510;28;1882;-65
2021/08/19 08:48:14;;;;;;;;;;;;;;;22.82;60.48;99636.22;5053313;28;866;-65
2021/08/19 08:50:42;;;;;;;;;;;;;;;22.72;61.00;99634.03;5053647;28;897;-63
2021/08/19 08:53:10;;;;;;;;;;;;;;;22.49;61.68;99633.72;5053401;28;886;-65
2021/08/19 08:55:38;;;;;;;;;;;;;;;22.41;63.02;99619.25;5053576;28;810;-63
2021/08/19 08:58:05;;;;;;;;;;;;;;;22.74;65.02;99620.22;5053402;28;849;-63
2021/08/19 09:00:31;;;;;;;;;;;;;;;23.20;64.90;99616.75;5053318;28;954;-63
2021/08/19 09:02:58;;;;;;;;;;;;;;;23.33;62.24;99611.50;5053363;28;818;-63
2021/08/19 09:05:27;;;;;;;;;;;;;;;23.27;62.85;99612.72;5053286;28;1952;-63
2021/08/19 09:07:55;;;;;;;;;;;;;;;23.42;62.42;99616.22;5053087;28;1212;-63
2021/08/19 09:10:23;;;;;;;;;;;;;;;23.40;59.43;99616.69;5053185;28;826;-64
2021/08/19 09:12:50;;;;;;;;;;;;;;;22.92;62.30;99610.75;5052986;28;815;-63
2021/08/19 09:15:18;;;;;;;;;;;;;;;23.03;63.13;99608.09;5053121;28;1368;-62
2021/08/19 09:17:55;;;;;;;;;;;;;;;22.98;68.14;99606.72;5053038;28;837;-62
2021/08/19 09:20:30;;;;;;;;;;;;;;;23.55;65.26;99607.38;5052963;28;822;-62
2021/08/19 09:22:59;;;;;;;;;;;;;;;24.36;59.44;99611.94;5052894;28;897;-63
2021/08/19 09:25:27;;;;;;;;;;;;;;;24.15;57.16;99599.22;5052907;28;1969;-64
2021/08/19 09:28:10;;;;;;;;;;;;;;;23.58;58.74;99609.97;5052811;28;846;-64
2021/08/19 09:30:37;;;;;;;;;;;;;;;23.86;60.28;99605.91;5052712;28;927;-64
2021/08/19 09:33:05;;;;;;;;;;;;;;;24.18;63.08;99601.81;5052767;28;893;-63
2021/08/19 09:35:32;;;;;;;;;;;;;;;24.46;58.95;99599.16;5052623;28;897;-64
2021/08/19 09:38:08;;;;;;;;;;;;;;;24.67;62.44;99593.44;5052661;28;865;-64
2021/08/19 09:40:34;;;;;;;;;;;;;;;25.00;58.69;99592.78;5052469;28;799;-64
2021/08/19 09:43:01;;;;;;;;;;;;;;;25.47;65.82;99586.78;5052515;28;802;-63
2021/08/19 09:45:28;;;;;;;;;;;;;;;26.03;63.88;99594.59;5052446;28;1886;-63
2021/08/19 09:48:06;;;;;;;;;;;;;;;25.98;55.65;99592.53;5052405;28;845;-65
2021/08/19 09:50:34;;;;;;;;;;;;;;;25.50;57.57;99588.63;5052445;28;854;-64
2021/08/19 09:53:14;;;;;;;;;;;;;;;25.36;57.23;99584.72;5052286;28;905;-64
2021/08/19 09:55:41;;;;;;;;;;;;;;;25.67;54.68;99597.91;5052437;28;810;-65
2021/08/19 09:58:08;;;;;;;;;;;;;;;25.02;55.33;99600.78;5051970;28;830;-64
2021/08/19 10:00:38;;;;;;;;;;;;;;;25.38;56.94;99592.69;5034456;28;1329;-65
2021/08/19 10:03:05;;;;;;;;;;;;;;;25.69;56.82;99597.41;5052092;28;810;-64
2021/08/19 10:05:31;;;;;;;;;;;;;;;25.93;55.24;99590.50;5052040;28;1975;-64
2021/08/19 10:07:59;;;;;;;;;;;;;;;26.12;55.83;99591.50;5052044;28;870;-64
2021/08/19 10:10:26;;;;;;;;;;;;;;;26.50;55.04;99586.31;5052041;28;862;-64
2021/08/19 10:12:55;;;;;;;;;;;;;;;27.25;55.06;99586.31;5051967;28;818;-64
2021/08/19 10:15:22;;;;;;;;;;;;;;;27.12;49.92;99579.66;5052144;28;1182;-63
2021/08/19 10:17:51;;;;;;;;;;;;;;;26.86;51.13;99577.97;5052381;28;902;-64
2021/08/19 10:20:19;;;;;;;;;;;;;;;27.24;57.55;99573.44;5051907;28;811;-64
2021/08/19 10:22:46;;;;;;;;;;;;;;;27.68;55.33;99570.84;5033997;28;1160;-63
2021/08/19 10:25:13;;;;;;;;;;;;;;;27.60;55.02;99576.28;5051685;28;2260;-63
2021/08/19 10:27:40;;;;;;;;;;;;;;;27.71;51.23;99572.59;5051780;28;827;-65
2021/08/19 10:30:07;;;;;;;;;;;;;;;27.77;50.06;99575.41;5051681;28;822;-64
2021/08/19 10:32:34;;;;;;;;;;;;;;;27.68;50.23;99576.50;5051716;28;909;-64
2021/08/19 10:35:11;;;;;;;;;;;;;;;27.39;52.45;99578.00;5051655;28;850;-63
2021/08/19 10:37:47;;;;;;;;;;;;;;;27.33;52.73;99575.19;5051561;28;905;-65
2021/08/19 10:40:23;;;;;;;;;;;;;;;26.84;51.26;99569.19;5051716;28;858;-64
2021/08/19 10:42:56;;;;;;;;;;;;;;;26.40;55.04;99573.72;5051675;28;870;-64
2021/08/19 10:45:29;;;;;;;;;;;;;;;26.45;52.08;99573.69;5051751;28;1951;-64
2021/08/19 10:48:01;;;;;;;;;;;;;;;26.35;50.20;99571.63;5051739;28;831;-66
2021/08/19 10:50:33;;;;;;;;;;;;;;;27.37;55.66;99567.16;5051401;28;786;-65
2021/08/19 10:53:16;;;;;;;;;;;;;;;28.16;52.72;99563.72;5051474;28;846;-65
2021/08/19 10:55:46;;;;;;;;;;;;;;;28.15;57.62;99569.97;5051398;28;885;-64
2021/08/19 10:58:21;;;;;;;;;;;;;;;27.49;54.81;99560.13;5051467;28;791;-64
2021/08/19 11:00:48;;;;;;;;;;;;;;;26.99;51.69;99569.69;5051311;28;798;-64
2021/08/19 11:03:33;;;;;;;;;;;;;;;27.19;52.38;99565.69;5051658;28;850;-64
2021/08/19 11:05:59;;;;;;;;;;;;;;;27.75;51.15;99553.22;5051267;28;893;-64
2021/08/19 11:08:45;;;;;;;;;;;;;;;28.15;48.35;99559.38;5051412;28;842;-64
2021/08/19 11:11:13;;;;;;;;;;;;;;;27.83;46.88;99556.25;5053798;28;825;-64
2021/08/19 11:13:41;;;;;;;;;;;;;;;26.82;48.69;99554.78;5055261;28;854;-65
2021/08/19 11:16:09;;;;;;;;;;;;;;;26.89;48.22;99557.09;5055371;28;1203;-64
2021/08/19 11:18:36;;;;;;;;;;;;;;;27.36;49.77;99557.13;5055511;28;814;-64
2021/08/19 11:21:04;;;;;;;;;;;;;;;27.35;53.83;99557.63;5055270;28;885;-63
2021/08/19 11:23:33;;;;;;;;;;;;;;;27.12;49.15;99551.28;5055128;28;845;-66
2021/08/19 11:26:04;;;;;;;;;;;;;;;27.18;49.21;99540.69;5055091;28;794;-65
2021/08/19 11:28:35;;;;;;;;;;;;;;;27.61;49.33;99535.28;5055330;28;819;-64
2021/08/19 11:31:09;;;;;;;;;;;;;;;27.58;45.08;99529.88;5055056;28;1032;-65
2021/08/19 11:33:35;;;;;;;;;;;;;;;26.74;45.98;99520.56;5055003;28;822;-64
2021/08/19 11:36:02;;;;;;;;;;;;;;;26.38;45.99;99522.47;5054904;28;806;-65
2021/08/19 11:38:29;;;;;;;;;;;;;;;26.69;45.76;99518.50;5054781;28;822;-63
2021/08/19 11:40:56;;;;;;;;;;;;;;;27.08;45.71;99518.31;5054856;28;838;-65
2021/08/19 11:43:27;;;;;;;;;;;;;;;27.15;45.09;99524.72;5054733;28;795;-64
2021/08/19 11:46:02;;;;;;;;;;;;;;;27.06;47.32;99514.47;5054668;28;1885;-64
2021/08/19 11:48:28;;;;;;;;;;;;;;;27.49;45.55;99519.63;5054933;28;811;-63
2021/08/19 11:50:56;;;;;;;;;;;;;;;27.80;43.61;99509.84;5054827;28;858;-66
2021/08/19 11:53:24;;;;;;;;;;;;;;;28.10;45.41;99512.66;5054818;28;848;-64
2021/08/19 11:55:50;;;;;;;;;;;;;;;28.54;42.45;99514.81;5054645;28;877;-65
2021/08/19 11:58:19;;;;;;;;;;;;;;;28.90;44.35;99498.31;5054814;28;819;-65
2021/08/19 12:01:05;;;;;;;;;;;;;;;29.11;42.77;99496.47;5054464;28;806;-66
2021/08/19 12:03:31;;;;;;;;;;;;;;;29.55;42.56;99502.00;5054720;28;826;-65
2021/08/19 12:06:27;;;;;;;;;;;;;;;29.50;40.42;99495.09;5054521;28;1953;-65
2021/08/19 12:08:56;;;;;;;;;;;;;;;29.00;40.30;99499.47;5037562;28;1407;-65
2021/08/19 12:11:24;;;;;;;;;;;;;;;29.00;41.41;99493.78;5054301;28;829;-64
2021/08/19 12:13:52;;;;;;;;;;;;;;;29.21;43.04;99482.66;5054145;28;1033;-64
2021/08/19 12:16:20;;;;;;;;;;;;;;;29.49;40.42;99487.88;5054031;28;1423;-65
2021/08/19 12:19:03;;;;;;;;;;;;;;;29.75;41.14;99483.59;5054103;28;865;-64
2021/08/19 12:21:30;;;;;;;;;;;;;;;29.79;40.47;99481.22;5054109;28;862;-66
2021/08/19 12:24:08;;;;;;;;;;;;;;;29.49;39.80;99489.97;5053987;28;1914;-66
2021/08/19 12:26:34;;;;;;;;;;;;;;;29.38;40.23;99490.13;5054067;28;818;-65
2021/08/19 12:29:02;;;;;;;;;;;;;;;29.30;39.17;99493.63;5036019;28;1236;-65
2021/08/19 12:32:04;;;;;;;;;;;;;;;29.06;38.16;99490.84;5053861;28;917;-65
2021/08/19 12:34:50;;;;;;;;;;;;;;;28.92;38.56;99493.63;4973067;28;1259;-66
2021/08/19 12:37:19;;;;;;;;;;;;;;;28.83;39.31;99481.88;4972700;28;1224;-65
2021/08/19 12:39:46;;;;;;;;;;;;;;;28.79;39.12;99487.84;4973258;28;839;-66
2021/08/19 12:42:16;;;;;;;;;;;;;;;29.35;39.40;99483.44;4972912;28;1033;-65
2021/08/19 12:45:03;;;;;;;;;;;;;;;29.65;38.05;99479.59;4972813;28;1931;-65
2021/08/19 12:47:40;;;;;;;;;;;;;;;29.21;39.13;99479.00;4972861;28;885;-64
2021/08/19 12:50:07;;;;;;;;;;;;;;;29.62;40.64;99469.31;4972730;28;1044;-64
2021/08/19 12:52:34;;;;;;;;;;;;;;;30.23;39.36;99470.28;4972904;28;834;-66
2021/08/19 12:55:00;;;;;;;;;;;;;;;30.58;40.49;99476.06;4972604;28;993;-63
2021/08/19 12:57:31;;;;;;;;;;;;;;;30.94;37.59;99476.38;4972645;28;822;-62
2021/08/19 12:59:58;;;;;;;;;;;;;;;30.65;36.99;99487.59;4972651;28;787;-62
2021/08/19 13:02:25;;;;;;;;;;;;;;;30.45;36.63;99479.72;4972475;28;930;-67
2021/08/19 13:04:54;;;;;;;;;;;;;;;30.51;36.81;99483.22;4972531;28;1972;-64
2021/08/19 13:07:19;;;;;;;;;;;;;;;30.43;39.46;99482.38;4975866;28;1052;-62
2021/08/19 13:09:46;;;;;;;;;;;;;;;30.33;36.62;99487.75;5053275;28;889;-62
2021/08/19 13:12:13;;;;;;;;;;;;;;;30.52;37.91;99476.97;5053142;28;861;-65
2021/08/19 13:14:39;;;;;;;;;;;;;;;30.63;36.93;99481.66;5053201;28;981;-65